Stark, New Hampshire
Current Conditions -  °F | °C
As of 4:52 PM on Wednesday 28 Jan 2015 (Local Time) from KBML Reporting Station
Clear Clear  
Wind Chill:   Ceiling: Unl
Heat Index: 12°   Visibility: 10mi
Dew Point: -2°   Wind: 5mph
Humidity: 53%   Direction: 340°NNW
Pressure: 30.06"   Gusts: NA
Location:  44.6154°N, 71.467°W
Report Text: KBML 282152Z AUTO 34004KT 10SM CLR M11/M19 A3006 RMK AO2 SLP206 T11111189
Loading
Personal Weather Stations






























Interactive Weather Map New forecast layout! Learn more

10-Day Weather Forecast

Advertisements
Track Severe Weather on mobile